createdAt,value
2018-12-23T00:01:07.744Z,95.05
2018-12-23T00:06:03.736Z,93.97
2018-12-23T00:10:59.728Z,94.40
2018-12-23T00:15:55.716Z,94.10
2018-12-23T00:20:51.710Z,93.63
2018-12-23T00:25:47.808Z,93.73
2018-12-23T00:30:43.802Z,93.89
2018-12-23T00:35:39.780Z,94.02
2018-12-23T00:40:35.773Z,93.77
2018-12-23T00:45:31.758Z,93.31
2018-12-23T00:50:27.753Z,93.35
2018-12-23T00:55:23.742Z,93.11
2018-12-23T01:00:19.703Z,93.45
2018-12-23T01:05:15.700Z,93.45
2018-12-23T01:10:11.702Z,93.58
2018-12-23T01:15:07.900Z,93.08
2018-12-23T01:20:06.015Z,93.32
2018-12-23T01:25:02.437Z,93.18
2018-12-23T01:29:58.438Z,93.26
2018-12-23T01:34:54.429Z,92.99
2018-12-23T01:39:50.400Z,92.51
2018-12-23T01:44:46.397Z,92.79
2018-12-23T01:49:42.381Z,93.01
2018-12-23T01:54:38.362Z,93.07
2018-12-23T01:59:34.353Z,93.41
2018-12-23T02:04:30.348Z,93.38
2018-12-23T02:09:26.347Z,93.12
2018-12-23T02:14:22.337Z,93.20
2018-12-23T02:19:18.328Z,93.78
2018-12-23T02:24:14.313Z,93.33
2018-12-23T02:29:10.296Z,93.56
2018-12-23T02:34:06.293Z,94.02
2018-12-23T02:39:04.308Z,93.83
2018-12-23T02:44:00.301Z,93.83
2018-12-23T02:48:56.298Z,93.39
2018-12-23T02:53:52.289Z,93.01
2018-12-23T02:58:48.324Z,92.84
2018-12-23T03:03:44.403Z,92.82
2018-12-23T03:08:40.387Z,92.91
2018-12-23T03:13:36.378Z,92.55
2018-12-23T03:18:32.368Z,92.70
2018-12-23T03:23:28.356Z,92.25
2018-12-23T03:28:25.060Z,92.04
2018-12-23T03:33:21.057Z,92.28
2018-12-23T03:38:17.050Z,92.12
2018-12-23T03:43:13.062Z,91.96
2018-12-23T03:48:09.038Z,92.19
2018-12-23T03:53:05.025Z,91.94
2018-12-23T03:58:06.090Z,92.04
2018-12-23T04:03:08.953Z,91.93
2018-12-23T04:08:04.946Z,91.94
2018-12-23T04:13:00.934Z,91.88
2018-12-23T04:17:57.047Z,91.30
2018-12-23T04:22:53.090Z,91.20
2018-12-23T04:27:51.750Z,91.20
2018-12-23T04:32:47.816Z,91.16
2018-12-23T04:37:50.778Z,91.46
2018-12-23T04:42:46.777Z,91.14
2018-12-23T04:47:42.762Z,90.92
2018-12-23T04:52:38.749Z,90.91
2018-12-23T04:57:36.303Z,90.51
2018-12-23T05:02:32.352Z,90.86
2018-12-23T05:07:28.342Z,90.76
2018-12-23T05:12:24.342Z,90.73
2018-12-23T05:17:20.328Z,90.36
2018-12-23T05:22:16.340Z,90.86
2018-12-23T05:27:12.341Z,90.42
2018-12-23T05:32:08.353Z,90.59
2018-12-23T05:37:04.353Z,90.13
2018-12-23T05:42:00.461Z,90.08
2018-12-23T05:46:56.444Z,89.91
2018-12-23T05:51:52.433Z,90.09
2018-12-23T05:56:48.432Z,90.49
2018-12-23T06:01:44.468Z,90.47
2018-12-23T06:06:40.462Z,91.19
2018-12-23T06:11:36.455Z,90.76
2018-12-23T06:16:32.453Z,91.61
2018-12-23T06:21:28.459Z,91.42
2018-12-23T06:26:24.476Z,91.32
2018-12-23T06:31:20.550Z,91.28
2018-12-23T06:36:18.934Z,91.53
2018-12-23T06:41:14.933Z,91.60
2018-12-23T06:46:10.989Z,91.74
2018-12-23T06:51:07.168Z,91.59
2018-12-23T06:56:03.181Z,91.40
2018-12-23T07:00:59.457Z,91.58
2018-12-23T07:05:55.459Z,90.93
2018-12-23T07:10:51.449Z,90.84
2018-12-23T07:15:47.457Z,91.32
2018-12-23T07:20:43.489Z,91.18
2018-12-23T07:25:39.510Z,90.95
2018-12-23T07:30:35.547Z,90.18
2018-12-23T07:35:31.613Z,90.50
2018-12-23T07:40:27.695Z,90.76
2018-12-23T07:45:23.792Z,90.82
2018-12-23T07:50:19.852Z,90.69
2018-12-23T07:55:15.877Z,91.09
2018-12-23T08:00:11.951Z,90.96
2018-12-23T08:05:07.996Z,91.11
2018-12-23T08:21:14.421Z,90.60
2018-12-23T08:26:10.493Z,90.68
2018-12-23T08:31:06.658Z,90.60
2018-12-23T08:36:02.866Z,90.65
2018-12-23T08:40:58.933Z,90.78
2018-12-23T08:45:54.996Z,90.69
2018-12-23T08:50:51.041Z,90.22
2018-12-23T08:55:47.067Z,90.22
2018-12-23T09:00:43.113Z,90.24
2018-12-23T09:05:39.128Z,90.40
2018-12-23T09:10:35.200Z,90.56
2018-12-23T09:15:31.270Z,90.50
2018-12-23T09:20:27.313Z,90.46
2018-12-23T09:25:44.001Z,90.15
2018-12-23T09:30:40.919Z,90.15
2018-12-23T09:35:58.141Z,89.80
2018-12-23T09:40:55.164Z,90.09
2018-12-23T09:45:51.408Z,90.01
2018-12-23T09:50:47.552Z,90.15
2018-12-23T09:55:43.919Z,89.96
2018-12-23T10:00:40.129Z,89.47
2018-12-23T10:11:21.475Z,89.92
2018-12-23T10:21:33.783Z,89.42
2018-12-23T10:26:33.471Z,89.59
2018-12-23T10:31:31.079Z,89.29
2018-12-23T10:47:09.319Z,89.10
2018-12-23T10:52:28.025Z,88.96
2018-12-23T11:03:11.188Z,89.25
2018-12-23T11:14:06.511Z,89.21
2018-12-23T11:19:07.978Z,89.66
2018-12-23T11:24:25.900Z,89.60
2018-12-23T11:29:28.961Z,89.88
2018-12-23T11:34:48.703Z,89.51
2018-12-23T11:40:09.705Z,89.73
2018-12-23T11:50:11.359Z,89.75
2018-12-23T12:01:06.554Z,90.59
2018-12-23T12:06:25.583Z,90.76
2018-12-23T12:11:23.815Z,90.94
2018-12-23T12:16:21.070Z,91.31
2018-12-23T12:33:12.942Z,91.69
2018-12-23T12:38:52.206Z,91.71
2018-12-23T12:44:09.814Z,91.32
2018-12-23T12:49:48.651Z,91.50
2018-12-23T13:00:52.158Z,92.04
2018-12-23T13:11:56.927Z,91.34
2018-12-23T13:28:18.368Z,92.14
2018-12-23T13:33:15.413Z,92.19
2018-12-23T13:38:12.466Z,92.15
2018-12-23T13:43:48.971Z,91.83
2018-12-23T13:49:07.997Z,91.89
2018-12-23T13:54:45.816Z,91.88
2018-12-23T14:00:21.644Z,92.22
2018-12-23T14:05:59.467Z,91.83
2018-12-23T14:11:37.239Z,91.52
2018-12-23T14:16:33.275Z,92.10
2018-12-23T14:21:30.314Z,91.96
2018-12-23T14:26:26.569Z,91.85
2018-12-23T14:31:22.701Z,91.58
2018-12-23T14:36:18.933Z,91.83
2018-12-23T14:41:14.994Z,91.81
2018-12-23T14:46:11.042Z,91.72
2018-12-23T14:51:29.282Z,92.67
2018-12-23T14:56:25.520Z,92.56
2018-12-23T15:01:21.662Z,92.86
2018-12-23T15:06:17.703Z,91.67
2018-12-23T15:11:13.836Z,91.55
2018-12-23T15:16:09.878Z,91.99
2018-12-23T15:21:05.931Z,91.04
2018-12-23T15:26:01.977Z,92.12
2018-12-23T15:30:58.066Z,92.34
2018-12-23T15:35:54.159Z,93.30
2018-12-23T15:40:51.237Z,93.85
2018-12-23T15:45:47.722Z,91.37
2018-12-23T15:50:45.022Z,92.55
2018-12-23T15:55:43.017Z,91.77
2018-12-23T16:00:59.328Z,91.85
2018-12-23T16:05:56.584Z,92.61
2018-12-23T16:10:53.147Z,91.57
2018-12-23T16:15:51.443Z,92.27
2018-12-23T16:21:07.336Z,93.10
2018-12-23T16:26:03.366Z,93.18
2018-12-23T16:30:59.389Z,92.44
2018-12-23T16:35:55.496Z,91.22
2018-12-23T16:40:51.541Z,92.46
2018-12-23T16:45:47.842Z,92.47
2018-12-23T16:50:44.058Z,93.12
2018-12-23T16:55:40.072Z,93.02
2018-12-23T17:00:36.200Z,91.74
2018-12-23T17:05:33.766Z,91.13
2018-12-23T17:10:29.821Z,91.80
2018-12-23T17:15:25.875Z,93.25
2018-12-23T17:20:25.381Z,93.07
2018-12-23T17:25:21.602Z,93.76
2018-12-23T17:30:17.643Z,93.99
2018-12-23T17:35:33.661Z,92.71
2018-12-23T17:40:30.247Z,93.64
2018-12-23T17:45:27.847Z,93.79
2018-12-23T17:50:24.015Z,91.61
2018-12-23T17:55:20.054Z,92.21
2018-12-23T18:00:16.192Z,93.39
2018-12-23T18:05:12.234Z,92.51
2018-12-23T18:10:08.249Z,93.56
2018-12-23T18:15:45.950Z,93.62
2018-12-23T18:20:41.968Z,94.13
2018-12-23T18:25:37.988Z,94.05
2018-12-23T18:30:34.318Z,93.81
2018-12-23T18:35:30.521Z,93.50
2018-12-23T18:40:33.348Z,93.62
2018-12-23T18:45:24.591Z,94.58
2018-12-23T18:50:20.591Z,95.26
2018-12-23T18:55:16.631Z,94.87
2018-12-23T19:00:12.845Z,95.52
2018-12-23T19:05:08.961Z,94.00
2018-12-23T19:10:46.636Z,93.13
2018-12-23T19:16:24.295Z,91.34
2018-12-23T19:22:01.956Z,91.85
2018-12-23T19:27:39.260Z,92.18
2018-12-23T19:33:15.121Z,93.33
2018-12-23T19:38:52.970Z,94.47
2018-12-23T19:44:28.827Z,91.56
2018-12-23T19:50:06.476Z,91.73
2018-12-23T19:55:44.126Z,91.53
2018-12-23T20:01:21.907Z,91.83
2018-12-23T20:06:57.658Z,92.54
2018-12-23T20:12:33.411Z,92.29
2018-12-23T20:18:11.067Z,93.22
2018-12-23T20:23:46.821Z,91.94
2018-12-23T20:29:22.573Z,93.27
2018-12-23T20:34:58.334Z,92.29
2018-12-23T20:40:36.012Z,91.77
2018-12-23T20:46:11.762Z,91.66
2018-12-23T20:51:49.418Z,91.04
2018-12-23T20:57:25.167Z,90.34
2018-12-23T21:03:00.951Z,90.11
2018-12-23T21:08:38.641Z,89.43
2018-12-23T21:14:16.301Z,89.63
2018-12-23T21:19:38.882Z,89.62
2018-12-23T21:24:56.463Z,90.46
2018-12-23T21:30:34.123Z,91.96
2018-12-23T21:36:12.152Z,89.89
2018-12-23T21:41:49.819Z,91.77
2018-12-23T21:47:25.573Z,91.26
2018-12-23T21:53:03.257Z,91.04
2018-12-23T22:04:36.193Z,91.97
2018-12-23T22:10:13.845Z,92.40
2018-12-23T22:15:09.858Z,92.17
2018-12-23T22:20:05.980Z,91.79
2018-12-23T22:25:02.007Z,92.65
2018-12-23T22:29:58.019Z,92.48
2018-12-23T22:34:54.007Z,92.68
2018-12-23T22:39:50.141Z,92.65
2018-12-23T22:44:46.151Z,92.71
2018-12-23T22:49:42.171Z,92.66
2018-12-23T22:54:38.185Z,92.61
2018-12-23T22:59:34.199Z,92.64
2018-12-23T23:04:30.214Z,92.66
2018-12-23T23:09:26.237Z,92.79
2018-12-23T23:14:22.246Z,92.36
2018-12-23T23:19:18.265Z,92.61
2018-12-23T23:24:14.274Z,92.97
2018-12-23T23:29:10.299Z,93.25
2018-12-23T23:34:06.526Z,93.68
2018-12-23T23:39:44.192Z,93.08
2018-12-23T23:44:40.206Z,93.10
2018-12-23T23:49:36.227Z,92.76
2018-12-23T23:54:32.241Z,92.42
2018-12-23T23:59:28.254Z,92.58
